Time;durP1;ratioP1;P1;durP2;ratioP2;P2;SDS_P1;SDS_P2;PMS_P1;PMS_P2;Temp;Humidity;BMP_temperature;BMP_pressure;BME280_temperature;BME280_humidity;BME280_pressure;Samples;Min_cycle;Max_cycle;Signal;HPM_P1;HPM_P2
2022/08/05 00:00:05;;;;;;;8.13;2.40;;;22.30;99.90;;;;;;5031918;28;20038;-75
2022/08/05 00:02:33;;;;;;;10.90;2.30;;;22.20;99.90;;;;;;5033719;28;20069;-75
2022/08/05 00:04:59;;;;;;;10.57;2.65;;;22.20;99.90;;;;;;5033490;28;20032;-74
2022/08/05 00:07:25;;;;;;;14.00;2.70;;;22.30;99.90;;;;;;5032339;28;20033;-75
2022/08/05 00:09:50;;;;;;;9.57;2.15;;;22.40;99.90;;;;;;5033507;28;20498;-75
2022/08/05 00:12:16;;;;;;;12.52;2.53;;;22.50;99.90;;;;;;5033587;28;20167;-74
2022/08/05 00:14:42;;;;;;;7.47;2.33;;;22.50;99.90;;;;;;5019287;28;20037;-75
2022/08/05 00:17:07;;;;;;;11.13;2.25;;;22.40;99.90;;;;;;5033233;28;20109;-75
2022/08/05 00:19:33;;;;;;;13.60;3.45;;;22.50;99.90;;;;;;5033647;28;20029;-75
2022/08/05 00:21:59;;;;;;;8.90;1.95;;;22.10;99.90;;;;;;5033080;28;20037;-75
2022/08/05 00:24:25;;;;;;;9.80;2.58;;;22.10;99.90;;;;;;5032323;28;20470;-74
2022/08/05 00:26:51;;;;;;;10.20;2.55;;;21.90;99.90;;;;;;5033109;28;20029;-75
2022/08/05 00:29:17;;;;;;;11.82;2.83;;;21.90;99.90;;;;;;5031842;28;20073;-75
2022/08/05 00:31:43;;;;;;;8.52;2.40;;;22.00;99.90;;;;;;5033369;28;20374;-75
2022/08/05 00:34:09;;;;;;;8.43;2.50;;;21.90;99.90;;;;;;5033361;28;20033;-75
2022/08/05 00:36:35;;;;;;;13.82;2.75;;;21.90;99.90;;;;;;5031723;28;20026;-75
2022/08/05 00:39:01;;;;;;;9.68;2.58;;;21.90;99.90;;;;;;5031584;28;20025;-75
2022/08/05 00:41:28;;;;;;;9.40;2.65;;;21.80;99.90;;;;;;5012067;28;20077;-75
2022/08/05 00:43:54;;;;;;;9.07;2.50;;;21.80;99.90;;;;;;5030180;28;20033;-75
2022/08/05 00:46:20;;;;;;;9.57;2.47;;;21.80;99.90;;;;;;5033106;28;20381;-75
2022/08/05 00:48:45;;;;;;;11.38;2.67;;;22.00;99.90;;;;;;5032736;28;20037;-75
2022/08/05 00:51:12;;;;;;;9.07;2.58;;;21.90;99.90;;;;;;5031574;28;20033;-75
2022/08/05 00:53:38;;;;;;;9.98;2.88;;;22.00;99.90;;;;;;5031791;28;20470;-75
2022/08/05 00:56:04;;;;;;;10.82;2.88;;;22.10;99.90;;;;;;5031145;28;20029;-75
2022/08/05 00:58:30;;;;;;;9.93;2.97;;;22.30;99.90;;;;;;5033087;28;20543;-75
2022/08/05 01:00:56;;;;;;;9.60;2.78;;;22.40;99.90;;;;;;5032230;28;20120;-75
2022/08/05 01:03:23;;;;;;;9.05;2.42;;;22.30;99.90;;;;;;5032941;28;20482;-75
2022/08/05 01:05:50;;;;;;;9.65;2.85;;;22.30;99.90;;;;;;5032820;28;20500;-75
2022/08/05 01:08:15;;;;;;;10.40;2.72;;;22.30;99.90;;;;;;5031271;28;20041;-75
2022/08/05 01:11:05;;;;;;;11.23;2.58;;;22.20;99.90;;;;;;5032544;28;20022;-75
2022/08/05 01:13:33;;;;;;;9.30;2.67;;;22.10;99.90;;;;;;5027861;28;20037;-75
2022/08/05 01:16:03;;;;;;;9.70;2.60;;;22.20;99.90;;;;;;5023521;28;20029;-75
2022/08/05 01:18:33;;;;;;;11.05;3.08;;;22.10;99.90;;;;;;5032632;28;20532;-75
2022/08/05 01:21:33;;;;;;;13.40;3.00;;;22.00;99.90;;;;;;5032369;28;20029;-75
2022/08/05 01:24:46;;;;;;;7.95;2.50;;;21.80;99.90;;;;;;5019818;28;20127;-75
2022/08/05 01:27:21;;;;;;;11.30;3.15;;;21.90;99.90;;;;;;5013426;28;20929;-75
2022/08/05 01:29:51;;;;;;;15.60;3.55;;;21.80;99.90;;;;;;5031181;28;20056;-75
2022/08/05 01:32:21;;;;;;;12.02;3.60;;;21.70;99.90;;;;;;5032288;28;20032;-75
2022/08/05 01:35:00;;;;;;;8.77;3.25;;;21.60;99.90;;;;;;5032628;28;20478;-74
2022/08/05 01:37:52;;;;;;;16.33;3.28;;;21.60;99.90;;;;;;5032338;28;20064;-74
2022/08/05 01:40:22;;;;;;;16.25;3.20;;;21.60;99.90;;;;;;5032013;28;20044;-75
2022/08/05 01:42:50;;;;;;;14.13;3.70;;;21.60;99.90;;;;;;5032419;28;20034;-76
2022/08/05 01:45:18;;;;;;;11.93;3.70;;;21.40;99.90;;;;;;5030980;28;20099;-75
2022/08/05 01:47:47;;;;;;;15.57;4.22;;;21.40;99.90;;;;;;5032328;28;20092;-75
2022/08/05 01:50:39;;;;;;;12.70;4.15;;;21.30;99.90;;;;;;5032412;28;20033;-75
2022/08/05 01:53:12;;;;;;;19.75;4.90;;;21.40;99.90;;;;;;5030985;28;20470;-75
2022/08/05 01:55:39;;;;;;;13.30;4.70;;;21.20;99.90;;;;;;5012558;28;20132;-75
2022/08/05 01:58:09;;;;;;;12.70;4.35;;;21.20;99.90;;;;;;5031021;28;20378;-75
2022/08/05 02:00:40;;;;;;;10.07;3.35;;;21.20;99.90;;;;;;5030736;28;20037;-75
2022/08/05 02:03:30;;;;;;;13.90;4.30;;;21.20;99.90;;;;;;5031977;28;20056;-75
2022/08/05 02:05:56;;;;;;;14.25;4.40;;;21.20;99.90;;;;;;5030854;28;20045;-75
2022/08/05 02:08:22;;;;;;;17.08;4.20;;;21.20;99.90;;;;;;5031183;28;20025;-74
2022/08/05 02:10:52;;;;;;;14.05;5.15;;;21.30;99.90;;;;;;5031761;28;20125;-74
2022/08/05 02:13:34;;;;;;;17.02;4.85;;;21.30;99.90;;;;;;5028893;28;20062;-74
2022/08/05 02:16:05;;;;;;;13.52;4.82;;;21.30;99.90;;;;;;5022523;28;20044;-74
2022/08/05 02:18:46;;;;;;;12.27;3.95;;;21.40;99.90;;;;;;5031906;28;20088;-74
2022/08/05 02:21:13;;;;;;;;;;;21.50;99.90;;;;;;5010903;28;20390;-74
2022/08/05 02:23:41;;;;;;;15.65;6.07;;;21.40;99.90;;;;;;5015337;28;19963;-75
2022/08/05 02:26:09;;;;;;;16.20;4.85;;;21.40;99.90;;;;;;5024890;28;20524;-74
2022/08/05 02:28:43;;;;;;;12.85;5.95;;;21.30;99.90;;;;;;5023017;28;20045;-74
2022/08/05 02:31:20;;;;;;;14.95;5.78;;;21.20;99.90;;;;;;5026774;28;20037;-75
2022/08/05 02:33:54;;;;;;;18.27;5.70;;;21.40;99.90;;;;;;5035518;28;20473;-75
2022/08/05 02:36:22;;;;;;;12.30;5.85;;;21.50;99.90;;;;;;5030049;28;20033;-74
2022/08/05 02:38:49;;;;;;;15.40;6.35;;;21.40;99.90;;;;;;5026971;28;20025;-74
2022/08/05 02:41:19;;;;;;;10.65;5.53;;;21.40;99.90;;;;;;5034937;28;20088;-74
2022/08/05 02:43:46;;;;;;;15.90;5.50;;;21.50;99.90;;;;;;5035394;28;20060;-74
2022/08/05 02:46:15;;;;;;;14.20;5.60;;;21.50;99.90;;;;;;5035185;28;20072;-75
2022/08/05 02:48:42;;;;;;;14.70;5.45;;;21.60;99.90;;;;;;5035170;28;20037;-74
2022/08/05 02:51:08;;;;;;;12.55;5.40;;;21.70;99.90;;;;;;5015007;28;20462;-74
2022/08/05 02:53:36;;;;;;;10.35;4.53;;;21.80;99.90;;;;;;5028008;28;20101;-75
2022/08/05 02:56:03;;;;;;;14.20;5.50;;;21.80;99.90;;;;;;5027233;28;20080;-74
2022/08/05 02:58:30;;;;;;;16.10;5.13;;;21.50;99.90;;;;;;5034795;28;20032;-74
2022/08/05 03:00:59;;;;;;;15.13;4.82;;;21.60;99.90;;;;;;5033587;28;20044;-74
2022/08/05 03:03:27;;;;;;;15.50;4.95;;;21.60;99.90;;;;;;5034643;28;20037;-76
2022/08/05 03:05:54;;;;;;;15.80;5.05;;;21.60;99.90;;;;;;5035001;28;20022;-75
2022/08/05 03:08:21;;;;;;;17.92;5.20;;;21.60;99.90;;;;;;5034553;28;20042;-74
2022/08/05 03:10:47;;;;;;;22.85;5.55;;;21.60;99.90;;;;;;5034722;28;20017;-75
2022/08/05 03:13:15;;;;;;;18.45;4.93;;;21.50;99.90;;;;;;5034503;28;20065;-75
2022/08/05 03:15:45;;;;;;;13.05;4.53;;;21.60;99.90;;;;;;5034659;28;20020;-76
2022/08/05 03:18:11;;;;;;;13.48;4.95;;;21.50;99.90;;;;;;5034686;28;20030;-75
2022/08/05 03:20:38;;;;;;;13.82;5.47;;;21.50;99.90;;;;;;5034462;28;20470;-75
2022/08/05 03:23:06;;;;;;;13.07;5.45;;;21.40;99.90;;;;;;5034213;28;20045;-75
2022/08/05 03:25:34;;;;;;;15.23;5.88;;;21.60;99.90;;;;;;5034193;28;20474;-75
2022/08/05 03:28:01;;;;;;;15.60;5.93;;;21.50;99.90;;;;;;5025323;28;20105;-75
2022/08/05 03:30:31;;;;;;;12.38;5.20;;;21.30;99.90;;;;;;5029408;28;20504;-75
2022/08/05 03:33:01;;;;;;;18.25;6.35;;;21.30;99.90;;;;;;5034575;28;20032;-75
2022/08/05 03:35:28;;;;;;;24.65;6.40;;;21.10;99.90;;;;;;5032753;28;20026;-74
2022/08/05 03:37:58;;;;;;;11.00;5.00;;;21.10;99.90;;;;;;5033923;28;20032;-75
2022/08/05 03:40:25;;;;;;;14.18;5.72;;;21.00;99.90;;;;;;5033989;28;20021;-75
2022/08/05 03:42:51;;;;;;;18.80;6.10;;;21.00;99.90;;;;;;5032894;28;20065;-75
2022/08/05 03:45:17;;;;;;;16.58;5.53;;;21.00;99.90;;;;;;5033904;28;20084;-75
2022/08/05 03:47:42;;;;;;;11.65;5.70;;;21.00;99.90;;;;;;5034163;28;20018;-75
2022/08/05 03:50:08;;;;;;;16.77;6.50;;;21.00;99.90;;;;;;5033589;28;20029;-75
2022/08/05 03:52:49;;;;;;;17.15;5.65;;;20.70;99.90;;;;;;5033686;28;20037;-75
2022/08/05 03:55:21;;;;;;;10.18;5.13;;;20.70;99.90;;;;;;5033887;28;20021;-75
2022/08/05 03:57:50;;;;;;;14.38;5.72;;;20.80;99.90;;;;;;5033878;28;20462;-75
2022/08/05 04:00:16;;;;;;;16.10;5.18;;;20.80;99.90;;;;;;5033296;28;20032;-75
2022/08/05 04:02:47;;;;;;;16.08;5.53;;;20.90;99.90;;;;;;5032342;28;20050;-75
2022/08/05 04:05:14;;;;;;;11.77;5.38;;;20.90;99.90;;;;;;5033810;28;20109;-75
2022/08/05 04:07:41;;;;;;;13.00;5.97;;;20.70;99.90;;;;;;5032665;28;20389;-75
2022/08/05 04:10:08;;;;;;;15.85;5.82;;;20.70;99.90;;;;;;5033600;28;20045;-75
2022/08/05 04:12:34;;;;;;;16.85;5.78;;;20.60;99.90;;;;;;5033749;28;20437;-75
2022/08/05 04:15:00;;;;;;;14.10;5.80;;;20.50;99.90;;;;;;5033381;28;20374;-74
2022/08/05 04:17:26;;;;;;;17.23;5.57;;;20.40;99.90;;;;;;5032237;28;20021;-75
2022/08/05 04:19:52;;;;;;;12.07;5.30;;;20.50;99.90;;;;;;5031793;28;20033;-74
2022/08/05 04:22:18;;;;;;;18.67;4.47;;;20.40;99.90;;;;;;5033337;28;20105;-74
2022/08/05 04:24:45;;;;;;;11.27;4.65;;;20.40;99.90;;;;;;5031967;28;20123;-74
2022/08/05 04:27:14;;;;;;;15.35;5.05;;;20.30;99.90;;;;;;5030440;28;20517;-74
2022/08/05 04:29:41;;;;;;;11.73;4.47;;;20.50;99.90;;;;;;5021625;28;20075;-74
2022/08/05 04:32:07;;;;;;;15.80;4.45;;;20.60;99.90;;;;;;5031702;28;20462;-74
2022/08/05 04:34:33;;;;;;;14.55;4.80;;;20.50;99.90;;;;;;5032947;28;20089;-74
2022/08/05 04:37:00;;;;;;;13.57;4.78;;;20.40;99.90;;;;;;5031949;28;20112;-74
2022/08/05 04:39:26;;;;;;;11.45;4.90;;;20.30;99.90;;;;;;5031754;28;20025;-74
2022/08/05 04:41:51;;;;;;;14.98;4.63;;;20.00;99.90;;;;;;5032915;28;20485;-74
2022/08/05 04:44:18;;;;;;;17.23;5.72;;;20.20;99.90;;;;;;5031574;28;20021;-75
2022/08/05 04:46:44;;;;;;;13.43;4.90;;;20.30;99.90;;;;;;5031950;28;20069;-74
2022/08/05 04:49:10;;;;;;;18.13;4.72;;;20.30;99.90;;;;;;5032296;28;20025;-74
2022/08/05 04:51:36;;;;;;;13.43;5.30;;;20.20;99.90;;;;;;5032444;28;20025;-74
2022/08/05 04:54:01;;;;;;;14.27;5.20;;;20.10;99.90;;;;;;5032964;28;20026;-74
2022/08/05 04:56:27;;;;;;;10.60;4.38;;;20.10;99.90;;;;;;5032845;28;20386;-74
2022/08/05 04:58:53;;;;;;;14.65;4.75;;;20.10;99.90;;;;;;5032891;28;20455;-74
2022/08/05 05:01:19;;;;;;;10.38;4.60;;;20.30;99.90;;;;;;5032389;28;20021;-76
2022/08/05 05:03:45;;;;;;;13.20;4.70;;;20.20;99.90;;;;;;5032531;28;20378;-76
2022/08/05 05:06:11;;;;;;;14.20;4.13;;;20.00;99.90;;;;;;5031341;28;20103;-75
2022/08/05 05:08:38;;;;;;;13.95;5.38;;;19.90;99.90;;;;;;5032975;28;20037;-74
2022/08/05 05:11:04;;;;;;;15.93;4.70;;;20.10;99.90;;;;;;5032863;28;20029;-74
2022/08/05 05:13:30;;;;;;;11.80;4.90;;;20.00;99.90;;;;;;5032536;28;20084;-75
2022/08/05 05:15:56;;;;;;;14.60;5.00;;;20.40;99.90;;;;;;5032648;28;20029;-74
2022/08/05 05:18:22;;;;;;;10.10;4.68;;;20.40;99.90;;;;;;5032133;28;20036;-75
2022/08/05 05:20:47;;;;;;;13.40;5.05;;;20.30;99.90;;;;;;5031596;28;20100;-74
2022/08/05 05:23:14;;;;;;;16.48;4.57;;;20.40;99.90;;;;;;5032510;28;20129;-74
2022/08/05 05:25:40;;;;;;;12.50;4.22;;;20.20;99.90;;;;;;5031448;28;20021;-74
2022/08/05 05:28:07;;;;;;;10.95;4.47;;;20.30;99.90;;;;;;5022328;28;20431;-74
2022/08/05 05:30:33;;;;;;;17.15;4.78;;;20.30;99.90;;;;;;5027887;28;20079;-74
2022/08/05 05:33:02;;;;;;;15.68;4.65;;;20.50;99.90;;;;;;5031978;28;20490;-75
2022/08/05 05:35:29;;;;;;;9.35;4.75;;;20.50;99.90;;;;;;5032386;28;20048;-74
2022/08/05 05:37:59;;;;;;;10.55;4.00;;;20.50;99.90;;;;;;5032352;28;20101;-75
2022/08/05 05:40:26;;;;;;;10.98;4.63;;;20.60;99.90;;;;;;5032330;28;20025;-74
2022/08/05 05:42:53;;;;;;;14.73;4.10;;;20.50;99.90;;;;;;5030995;28;20478;-74
2022/08/05 05:45:19;;;;;;;10.27;4.10;;;20.50;99.90;;;;;;5031211;28;20026;-74
2022/08/05 05:47:46;;;;;;;10.10;4.25;;;20.50;99.90;;;;;;5031891;28;20086;-75
2022/08/05 05:50:14;;;;;;;14.93;4.75;;;20.40;99.90;;;;;;5032444;28;20022;-75
2022/08/05 05:52:40;;;;;;;7.82;4.25;;;20.40;99.90;;;;;;5032136;28;20060;-74
2022/08/05 05:55:11;;;;;;;9.40;4.10;;;20.30;99.90;;;;;;5031175;28;20100;-74
2022/08/05 05:57:39;;;;;;;11.88;3.53;;;20.30;99.90;;;;;;5030815;28;20481;-75
2022/08/05 06:00:10;;;;;;;9.30;3.50;;;20.30;99.90;;;;;;5032118;28;20040;-74
2022/08/05 06:02:38;;;;;;;13.63;3.70;;;20.40;99.90;;;;;;5026641;28;20046;-74
2022/08/05 06:05:07;;;;;;;11.65;3.47;;;20.50;99.90;;;;;;5024891;28;20474;-74
2022/08/05 06:07:33;;;;;;;8.48;3.45;;;20.50;99.90;;;;;;5020188;28;20064;-74
2022/08/05 06:09:58;;;;;;;15.13;4.35;;;20.50;99.90;;;;;;5025943;28;20222;-75
2022/08/05 06:12:24;;;;;;;10.32;3.35;;;20.50;99.90;;;;;;5024566;28;20104;-75
2022/08/05 06:14:50;;;;;;;12.38;3.90;;;20.70;99.90;;;;;;5028669;28;20382;-75
2022/08/05 06:17:16;;;;;;;7.38;2.80;;;20.80;99.90;;;;;;5026881;28;20390;-75
2022/08/05 06:19:41;;;;;;;10.40;3.15;;;20.90;99.90;;;;;;5028185;28;20024;-75
2022/08/05 06:22:07;;;;;;;7.47;3.03;;;21.20;99.90;;;;;;5023259;28;20073;-75
2022/08/05 06:24:34;;;;;;;5.57;2.80;;;21.40;99.90;;;;;;5025764;28;20033;-75
2022/08/05 06:27:01;;;;;;;12.23;2.85;;;21.20;99.90;;;;;;5028936;28;20056;-75
2022/08/05 06:29:27;;;;;;;10.32;2.60;;;21.30;99.90;;;;;;5032672;28;20033;-75
2022/08/05 06:31:53;;;;;;;10.55;3.17;;;21.30;99.90;;;;;;5033352;28;20028;-75
2022/08/05 06:34:19;;;;;;;8.60;2.92;;;21.30;99.90;;;;;;5032779;28;20029;-75
2022/08/05 06:36:44;;;;;;;10.27;2.38;;;21.00;99.90;;;;;;5021209;28;20030;-75
2022/08/05 06:39:10;;;;;;;4.75;1.88;;;20.90;99.90;;;;;;5029750;28;20037;-75
2022/08/05 06:41:36;;;;;;;7.15;2.85;;;20.90;99.90;;;;;;5027377;28;20017;-76
2022/08/05 06:44:03;;;;;;;16.35;3.25;;;20.80;99.90;;;;;;5018603;28;20061;-75
2022/08/05 06:46:29;;;;;;;7.20;2.35;;;20.80;99.90;;;;;;5024338;28;20025;-75
2022/08/05 06:48:54;;;;;;;6.47;2.40;;;20.80;99.90;;;;;;5024263;28;20091;-75
2022/08/05 06:51:21;;;;;;;9.52;2.63;;;20.90;99.90;;;;;;5026830;28;20021;-75
2022/08/05 06:53:46;;;;;;;7.43;2.15;;;21.00;99.90;;;;;;5027107;28;20028;-75
2022/08/05 06:56:12;;;;;;;6.50;2.00;;;21.30;99.90;;;;;;5024489;28;20452;-75
2022/08/05 06:58:38;;;;;;;5.35;2.20;;;21.40;99.90;;;;;;5030191;28;20397;-75
2022/08/05 07:01:05;;;;;;;13.93;2.60;;;21.30;99.90;;;;;;5027830;28;20398;-78
2022/08/05 07:03:31;;;;;;;7.85;2.15;;;21.70;99.90;;;;;;5026653;28;20073;-76
2022/08/05 07:05:58;;;;;;;9.57;2.25;;;21.70;99.90;;;;;;5015602;28;20021;-75
2022/08/05 07:08:24;;;;;;;8.82;2.08;;;21.40;99.90;;;;;;5012693;28;20078;-75
2022/08/05 07:10:50;;;;;;;12.25;2.13;;;20.90;99.90;;;;;;5015233;28;20084;-75
2022/08/05 07:18:45;;;;;;;12.32;2.05;;;22.00;99.90;;;;;;5027531;28;20034;-76
2022/08/05 07:21:11;;;;;;;11.30;1.92;;;22.10;99.90;;;;;;5028658;28;20032;-75
2022/08/05 07:23:37;;;;;;;3.67;1.60;;;21.90;99.90;;;;;;5025065;28;20033;-75
2022/08/05 07:26:03;;;;;;;6.25;1.48;;;21.90;99.90;;;;;;5017968;28;20052;-76
2022/08/05 07:28:29;;;;;;;5.13;1.60;;;22.00;99.90;;;;;;5023601;28;20029;-75
2022/08/05 07:30:55;;;;;;;7.25;1.95;;;22.30;99.90;;;;;;5028416;28;20035;-75
2022/08/05 07:33:21;;;;;;;5.80;1.45;;;22.30;99.90;;;;;;5023140;28;20021;-75
2022/08/05 07:35:47;;;;;;;4.32;1.42;;;22.30;99.90;;;;;;4998598;28;20038;-74
2022/08/05 07:38:14;;;;;;;4.38;1.48;;;22.20;99.90;;;;;;5017813;28;20080;-74
2022/08/05 07:40:40;;;;;;;3.55;1.38;;;22.60;99.90;;;;;;5015508;28;20113;-74
2022/08/05 07:43:05;;;;;;;6.85;1.35;;;22.60;99.90;;;;;;5017641;28;20116;-74
2022/08/05 07:45:31;;;;;;;3.78;1.60;;;22.20;99.90;;;;;;5027835;28;20045;-75
2022/08/05 07:47:57;;;;;;;7.80;1.30;;;22.10;99.90;;;;;;5027194;28;20022;-74
2022/08/05 07:50:23;;;;;;;5.72;1.90;;;22.50;99.90;;;;;;5017275;28;20029;-74
2022/08/05 07:52:49;;;;;;;4.60;1.27;;;22.20;99.90;;;;;;5015388;28;20033;-75
2022/08/05 07:55:15;;;;;;;6.35;1.90;;;22.50;99.90;;;;;;5013821;28;20025;-75
2022/08/05 07:57:41;;;;;;;7.22;1.55;;;22.90;99.90;;;;;;5018149;28;20029;-75
2022/08/05 08:00:08;;;;;;;5.38;1.58;;;22.90;99.90;;;;;;5013890;28;20022;-75
2022/08/05 08:02:37;;;;;;;6.53;2.00;;;23.00;99.90;;;;;;5015633;28;20048;-74
2022/08/05 08:05:03;;;;;;;6.53;1.92;;;23.20;99.90;;;;;;5009399;28;20280;-74
2022/08/05 08:07:29;;;;;;;5.63;1.55;;;23.00;99.90;;;;;;4999037;28;20032;-72
2022/08/05 08:09:54;;;;;;;5.30;1.70;;;23.10;99.90;;;;;;5027773;28;20092;-73
2022/08/05 08:12:21;;;;;;;6.05;1.55;;;23.20;99.90;;;;;;5026339;28;20029;-79
2022/08/05 08:14:47;;;;;;;6.70;1.80;;;23.50;99.90;;;;;;5027590;28;20017;-72
2022/08/05 08:17:13;;;;;;;8.48;2.10;;;23.90;99.90;;;;;;5015510;28;20036;-74
2022/08/05 08:19:40;;;;;;;4.43;1.52;;;23.80;99.90;;;;;;5015779;28;20029;-73
2022/08/05 08:22:06;;;;;;;4.20;1.60;;;23.80;99.90;;;;;;5026046;28;20029;-73
2022/08/05 08:24:33;;;;;;;6.30;2.08;;;23.80;99.90;;;;;;5024690;28;20065;-74
2022/08/05 08:26:59;;;;;;;3.08;1.23;;;24.00;99.90;;;;;;5024193;28;20034;-73
2022/08/05 08:29:24;;;;;;;7.20;2.33;;;23.90;99.90;;;;;;5031465;28;20031;-72
2022/08/05 08:31:51;;;;;;;5.65;2.13;;;23.50;99.90;;;;;;5032470;28;20041;-73
2022/08/05 08:34:21;;;;;;;11.38;1.70;;;23.20;99.90;;;;;;5031048;28;20022;-73
2022/08/05 08:36:47;;;;;;;6.45;1.75;;;23.50;99.90;;;;;;5031164;28;20021;-73
2022/08/05 08:39:14;;;;;;;7.28;1.65;;;23.30;99.90;;;;;;5027416;28;20017;-73
2022/08/05 08:41:43;;;;;;;13.07;1.58;;;22.70;99.90;;;;;;5030584;28;20040;-73
2022/08/05 08:44:13;;;;;;;5.10;1.25;;;22.40;99.90;;;;;;5030633;28;20029;-73
2022/08/05 08:46:42;;;;;;;11.40;1.58;;;22.70;99.90;;;;;;5033002;28;20470;-73
2022/08/05 08:49:11;;;;;;;5.03;1.23;;;22.80;99.90;;;;;;5031764;28;20041;-72
2022/08/05 08:51:39;;;;;;;7.75;1.25;;;22.40;99.90;;;;;;5032831;28;20021;-73
2022/08/05 08:54:05;;;;;;;3.67;1.40;;;22.60;99.90;;;;;;5033018;28;20040;-72
2022/08/05 08:56:32;;;;;;;6.82;1.40;;;22.60;99.90;;;;;;5031207;28;20009;-73
2022/08/05 08:58:59;;;;;;;13.43;1.30;;;23.00;99.90;;;;;;5031546;28;20091;-73
2022/08/05 09:01:24;;;;;;;2.42;1.20;;;22.90;99.80;;;;;;5032586;28;20025;-72
2022/08/05 09:03:55;;;;;;;4.53;1.40;;;23.20;99.40;;;;;;5033007;28;20099;-73
2022/08/05 09:06:22;;;;;;;3.15;1.25;;;23.40;99.30;;;;;;5032574;28;20139;-73
2022/08/05 09:08:47;;;;;;;5.63;0.80;;;23.80;96.90;;;;;;5032821;28;20033;-73
2022/08/05 09:11:13;;;;;;;4.18;0.80;;;24.20;96.90;;;;;;5032297;28;20032;-73
2022/08/05 09:13:41;;;;;;;3.45;0.88;;;23.90;95.60;;;;;;5032772;28;20535;-73
2022/08/05 09:16:10;;;;;;;4.25;1.00;;;23.70;95.60;;;;;;5033106;28;20029;-73
2022/08/05 09:18:36;;;;;;;3.10;1.00;;;23.10;96.80;;;;;;5032400;28;20060;-73
2022/08/05 09:21:03;;;;;;;3.05;0.80;;;23.70;97.20;;;;;;5032776;28;20065;-73
2022/08/05 09:23:28;;;;;;;2.38;0.65;;;23.00;95.50;;;;;;5032119;28;20038;-73
2022/08/05 09:26:12;;;;;;;4.50;0.98;;;22.90;95.30;;;;;;5033088;28;20028;-73
2022/08/05 09:28:39;;;;;;;7.43;0.90;;;23.60;97.90;;;;;;5000652;28;20041;-73
2022/08/05 09:31:13;;;;;;;4.30;1.23;;;24.20;97.40;;;;;;5032713;28;20088;-73
2022/08/05 09:33:51;;;;;;;5.80;1.27;;;24.10;95.20;;;;;;5032498;28;20021;-72
2022/08/05 09:36:18;;;;;;;1.80;1.00;;;24.20;94.70;;;;;;5033728;28;20033;-73
2022/08/05 09:38:58;;;;;;;4.90;1.05;;;23.80;97.00;;;;;;5036096;28;20021;-73
2022/08/05 09:41:24;;;;;;;8.65;1.42;;;24.20;96.30;;;;;;5036713;28;20485;-73
2022/08/05 09:43:51;;;;;;;14.15;2.15;;;24.90;96.00;;;;;;5035049;28;20124;-73
2022/08/05 09:46:29;;;;;;;3.03;0.77;;;24.40;96.40;;;;;;5036510;28;20036;-74
2022/08/05 09:48:56;;;;;;;3.95;1.08;;;24.10;96.70;;;;;;5035051;28;20064;-74
2022/08/05 09:51:37;;;;;;;6.47;1.00;;;24.20;96.70;;;;;;5021575;28;20034;-74
2022/08/05 09:54:07;;;;;;;3.00;0.98;;;24.80;96.10;;;;;;5002344;28;20115;-74
2022/08/05 09:56:36;;;;;;;8.43;0.90;;;24.60;96.20;;;;;;5017974;28;20412;-74
2022/08/05 09:59:02;;;;;;;2.92;0.80;;;23.80;97.20;;;;;;5021900;28;20072;-74
2022/08/05 10:01:28;;;;;;;4.30;0.75;;;23.70;96.30;;;;;;5020744;28;20034;-77
2022/08/05 10:04:03;;;;;;;2.38;0.73;;;23.40;96.60;;;;;;5017083;28;20038;-74
2022/08/05 10:06:29;;;;;;;3.50;0.90;;;23.50;96.30;;;;;;5023261;28;20030;-74
2022/08/05 10:09:09;;;;;;;6.82;1.30;;;23.20;96.60;;;;;;5030778;28;20084;-75
2022/08/05 10:11:35;;;;;;;3.03;0.80;;;23.60;98.00;;;;;;5023221;28;20026;-74
2022/08/05 10:14:23;;;;;;;3.72;0.90;;;23.80;97.10;;;;;;5020248;28;20026;-74
2022/08/05 10:16:49;;;;;;;4.18;1.25;;;23.40;98.80;;;;;;5020541;28;20491;-73
2022/08/05 10:19:15;;;;;;;1.88;0.70;;;23.60;97.70;;;;;;5028043;28;20034;-74
2022/08/05 10:21:41;;;;;;;3.30;0.93;;;24.00;97.50;;;;;;5025577;28;20478;-73
2022/08/05 10:24:11;;;;;;;7.22;1.10;;;23.60;98.10;;;;;;5020534;28;20097;-74
2022/08/05 10:26:40;;;;;;;6.72;1.30;;;23.90;98.20;;;;;;5018941;28;20029;-73
2022/08/05 10:29:07;;;;;;;5.65;1.17;;;24.20;97.40;;;;;;5024159;28;20076;-73
2022/08/05 10:31:33;;;;;;;3.45;0.82;;;24.70;96.90;;;;;;5034831;28;20029;-74
2022/08/05 10:33:58;;;;;;;5.13;1.13;;;24.50;96.10;;;;;;5034561;28;20026;-74
2022/08/05 10:36:24;;;;;;;3.13;0.73;;;24.00;97.20;;;;;;5034480;28;20474;-74
2022/08/05 10:38:55;;;;;;;6.60;0.80;;;24.50;96.80;;;;;;5034323;28;20017;-74
2022/08/05 10:41:34;;;;;;;3.28;0.98;;;24.40;95.90;;;;;;5034545;28;20083;-74
2022/08/05 10:44:14;;;;;;;8.00;1.05;;;24.20;95.80;;;;;;5032966;28;20082;-74
2022/08/05 10:46:49;;;;;;;5.78;1.17;;;24.30;95.80;;;;;;5023741;28;20029;-74
2022/08/05 10:49:16;;;;;;;6.57;0.98;;;24.60;95.30;;;;;;5033093;28;20200;-74
2022/08/05 10:51:51;;;;;;;11.10;1.23;;;24.50;95.10;;;;;;5024225;28;20026;-75
2022/08/05 10:54:17;;;;;;;2.97;0.90;;;24.10;96.10;;;;;;5017912;28;20589;-74
2022/08/05 10:56:48;;;;;;;4.47;1.30;;;24.40;95.60;;;;;;5031194;28;20018;-74
2022/08/05 10:59:24;;;;;;;3.95;0.60;;;24.40;95.00;;;;;;5017063;28;20101;-75
2022/08/05 11:02:06;;;;;;;9.80;1.02;;;24.10;95.60;;;;;;5014693;28;20671;-74
2022/08/05 11:04:45;;;;;;;1.90;0.70;;;24.70;94.60;;;;;;5018937;28;20032;-74
2022/08/05 11:07:14;;;;;;;7.97;1.10;;;24.70;94.30;;;;;;5012723;28;20026;-77
2022/08/05 11:09:53;;;;;;;8.13;0.65;;;24.60;95.50;;;;;;5015285;28;20095;-78
2022/08/05 11:12:38;;;;;;;2.85;0.93;;;25.20;94.10;;;;;;5014630;28;20030;-78
2022/08/05 11:15:33;;;;;;;13.45;1.20;;;25.20;93.00;;;;;;5015722;28;20026;-78
2022/08/05 11:18:13;;;;;;;3.92;0.70;;;25.20;92.50;;;;;;5014622;28;20060;-78
2022/08/05 11:20:45;;;;;;;4.70;0.70;;;25.50;92.70;;;;;;5014519;28;20091;-78
2022/08/05 11:23:32;;;;;;;6.82;0.90;;;25.40;92.50;;;;;;5013361;28;20113;-78
2022/08/05 11:26:07;;;;;;;2.33;0.68;;;25.10;92.30;;;;;;5014651;28;20114;-78
2022/08/05 11:28:33;;;;;;;6.43;0.52;;;25.40;92.90;;;;;;5014764;28;20118;-78
2022/08/05 11:31:01;;;;;;;7.78;1.05;;;24.80;92.40;;;;;;5032704;28;20511;-78
2022/08/05 11:33:38;;;;;;;2.80;0.50;;;25.20;92.00;;;;;;5033809;28;20486;-78
2022/08/05 11:36:09;;;;;;;3.20;0.68;;;25.20;90.50;;;;;;5034194;28;20363;-78
2022/08/05 11:38:38;;;;;;;6.38;0.60;;;25.00;90.90;;;;;;5033152;28;20544;-78
2022/08/05 11:41:21;;;;;;;3.60;0.50;;;25.00;91.40;;;;;;5034121;28;20097;-78
2022/08/05 11:44:09;;;;;;;3.08;0.60;;;25.30;90.60;;;;;;5034317;28;20436;-78
2022/08/05 11:46:37;;;;;;;2.30;0.70;;;25.10;91.00;;;;;;5034156;28;20033;-78
2022/08/05 11:49:04;;;;;;;2.05;0.50;;;25.20;90.80;;;;;;5032786;28;20397;-78
2022/08/05 11:51:31;;;;;;;1.73;0.73;;;25.50;91.20;;;;;;5033986;28;20018;-78
2022/08/05 11:53:57;;;;;;;2.20;0.63;;;25.60;90.60;;;;;;5034308;28;20108;-77
2022/08/05 11:56:23;;;;;;;3.30;0.63;;;25.20;91.40;;;;;;5033932;28;20478;-78
2022/08/05 11:58:50;;;;;;;5.53;0.52;;;25.30;92.00;;;;;;5033272;28;20022;-78
2022/08/05 12:01:21;;;;;;;1.73;0.63;;;25.20;91.00;;;;;;5033587;28;20041;-78
2022/08/05 12:03:55;;;;;;;8.37;0.67;;;25.80;91.10;;;;;;5033553;28;20048;-78
2022/08/05 12:06:28;;;;;;;3.83;0.60;;;26.50;90.00;;;;;;5033041;28;20018;-78
2022/08/05 12:08:56;;;;;;;2.30;0.57;;;26.90;88.60;;;;;;5032998;28;20163;-77
2022/08/05 12:11:24;;;;;;;2.33;0.80;;;26.50;88.30;;;;;;5033746;28;20359;-77
2022/08/05 12:14:03;;;;;;;1.95;0.40;;;26.10;90.00;;;;;;5033819;28;20126;-77
2022/08/05 12:16:34;;;;;;;5.72;0.80;;;25.90;88.30;;;;;;5033509;28;20107;-78
2022/08/05 12:19:00;;;;;;;6.13;0.77;;;26.50;88.70;;;;;;5031941;28;20065;-78
2022/08/05 12:21:27;;;;;;;2.05;0.60;;;27.00;87.90;;;;;;5033382;28;20495;-77
2022/08/05 12:24:15;;;;;;;2.45;0.63;;;27.30;89.00;;;;;;5029273;28;20471;-74
2022/08/05 12:26:45;;;;;;;3.97;0.52;;;27.00;86.70;;;;;;5031910;28;20025;-74
2022/08/05 12:29:13;;;;;;;3.45;0.60;;;26.80;90.10;;;;;;5025257;28;20547;-74
2022/08/05 12:31:43;;;;;;;1.10;0.40;;;26.60;87.10;;;;;;5032765;28;20105;-75
2022/08/05 12:34:09;;;;;;;1.73;0.70;;;27.10;87.30;;;;;;5032245;28;20160;-75
2022/08/05 12:36:36;;;;;;;2.42;0.47;;;26.40;87.80;;;;;;5033480;28;20029;-75
2022/08/05 12:39:04;;;;;;;3.35;0.50;;;26.60;88.30;;;;;;5015395;28;20052;-76
2022/08/05 12:41:34;;;;;;;3.05;0.50;;;26.60;87.60;;;;;;5032496;28;20022;-75
2022/08/05 12:44:03;;;;;;;0.70;0.50;;;26.70;88.10;;;;;;5032950;28;20049;-75
2022/08/05 12:46:31;;;;;;;2.78;0.70;;;26.20;88.20;;;;;;5032810;28;20064;-74
2022/08/05 12:49:09;;;;;;;5.22;0.70;;;25.30;89.90;;;;;;5031786;28;20116;-75
2022/08/05 12:51:56;;;;;;;2.40;0.45;;;25.80;89.40;;;;;;5031575;28;20025;-76
2022/08/05 12:54:30;;;;;;;2.95;0.95;;;26.50;88.80;;;;;;5032967;28;20367;-75
2022/08/05 12:57:01;;;;;;;2.05;0.77;;;26.40;87.20;;;;;;5033005;28;20029;-77